Captain Evangelos Nm — 9HWW8 — position and weather

sailwx.info

Track history (hours):
 
Tides and Currents Weather Stations Pressure Air Temp Water Temp Dewpoint Dewpoint Depression Visibility Wind Speed Wind Dir Waves Ship Positions

Captain Evangelos Nm

Last reported at 2015-Apr-01 09:30 UTC. Time now 2015-Apr-21 05:02 UTC.
Position N 01°53' E 102°24'.
Warning: this ship's position is 19 days out of date.

Length 223 m; draft 12.9 m.

Type: Cargo ship. MMSI: 256545000.

Date/timePositionNaut miles runAvg speedWind from/ knotsBaromVisibWave heightAir tempDewpointWater temp
2015-Apr-01 09:30N 01°53' E 102°24'1111.4
2015-Apr-01 08:30N 01°47' E 102°34'7512.3
2015-Apr-01 02:22N 01°11' E 103°40'910.5
2015-Apr-01 01:31N 01°11' E 103°49'9 8.9
2015-Apr-01 00:33N 01°15' E 103°56'1 0.8
2015-Mar-31 23:30N 01°16' E 103°56'0 0.0
2015-Mar-31 22:27N 01°16' E 103°56'0 0.0
2015-Mar-31 21:33N 01°16' E 103°56'0 0.0
2015-Mar-31 20:27N 01°16' E 103°56'0 0.0
2015-Mar-31 19:33N 01°16' E 103°56'0 0.0
2015-Mar-31 18:33N 01°16' E 103°56'0 0.0
2015-Mar-31 17:15N 01°16' E 103°56'0 0.0
2015-Mar-31 16:33N 01°16' E 103°56'0 0.0
2015-Mar-31 15:27N 01°16' E 103°56'0 0.0
2015-Mar-31 14:33N 01°16' E 103°56'0 0.0
2015-Mar-31 13:33N 01°16' E 103°56'0 0.0
2015-Mar-31 12:30N 01°16' E 103°56'0 0.0
2015-Mar-31 11:33N 01°16' E 103°56'0 0.0
2015-Mar-31 10:33N 01°16' E 103°56'0 0.0
2015-Mar-31 09:33N 01°16' E 103°56'0 0.1
2015-Mar-31 08:21N 01°16' E 103°56'0 0.1
2015-Mar-31 07:21N 01°16' E 103°56'0 0.0
2015-Mar-31 06:21N 01°16' E 103°56'0 0.1
2015-Mar-31 05:34N 01°16' E 103°56'0 0.3
2015-Mar-31 04:33N 01°16' E 103°57'5 4.2
2015-Mar-31 03:26N 01°16' E 104°01'1010.3
2015-Mar-31 02:31N 01°17' E 104°11'  
2015-Mar-28 09:27S 04°33' E 113°28'12810.8
2015-Mar-27 21:33S 04°14' E 115°35'1410.6
2015-Mar-27 20:16S 04°00' E 115°38'3 0.1
2015-Mar-26 01:07S 03°59' E 115°36'0 0.0
2015-Mar-25 07:04S 03°59' E 115°36'0 0.2
2015-Mar-25 06:10S 03°59' E 115°36'0 0.0
2015-Mar-24 08:22S 03°59' E 115°36'3 0.1
2015-Mar-22 17:18S 04°01' E 115°38'  
Track history (hours):
 
Tides and Currents Weather Stations Pressure Air Temp Water Temp Dewpoint Dewpoint Depression Visibility Wind Speed Wind Dir Waves Ship Positions

Captain Evangelos Nm

Last reported at 2015-Apr-01 09:30 UTC. Time now 2015-Apr-21 05:02 UTC.
Position N 01°53' E 102°24'.
Warning: this ship's position is 19 days out of date.

Length 223 m; draft 12.9 m.

Type: Cargo ship. MMSI: 256545000.

Date/timePositionNaut miles runAvg speedWind from/ knotsBaromVisibWave heightAir tempDewpointWater temp
2015-Apr-01 09:30N 01°53' E 102°24'1111.4
2015-Apr-01 08:30N 01°47' E 102°34'7512.3
2015-Apr-01 02:22N 01°11' E 103°40'910.5
2015-Apr-01 01:31N 01°11' E 103°49'9 8.9
2015-Apr-01 00:33N 01°15' E 103°56'1 0.8
2015-Mar-31 23:30N 01°16' E 103°56'0 0.0
2015-Mar-31 22:27N 01°16' E 103°56'0 0.0
2015-Mar-31 21:33N 01°16' E 103°56'0 0.0
2015-Mar-31 20:27N 01°16' E 103°56'0 0.0
2015-Mar-31 19:33N 01°16' E 103°56'0 0.0
2015-Mar-31 18:33N 01°16' E 103°56'0 0.0
2015-Mar-31 17:15N 01°16' E 103°56'0 0.0
2015-Mar-31 16:33N 01°16' E 103°56'0 0.0
2015-Mar-31 15:27N 01°16' E 103°56'0 0.0
2015-Mar-31 14:33N 01°16' E 103°56'0 0.0
2015-Mar-31 13:33N 01°16' E 103°56'0 0.0
2015-Mar-31 12:30N 01°16' E 103°56'0 0.0
2015-Mar-31 11:33N 01°16' E 103°56'0 0.0
2015-Mar-31 10:33N 01°16' E 103°56'0 0.0
2015-Mar-31 09:33N 01°16' E 103°56'0 0.1
2015-Mar-31 08:21N 01°16' E 103°56'0 0.1
2015-Mar-31 07:21N 01°16' E 103°56'0 0.0
2015-Mar-31 06:21N 01°16' E 103°56'0 0.1
2015-Mar-31 05:34N 01°16' E 103°56'0 0.3
2015-Mar-31 04:33N 01°16' E 103°57'5 4.2
2015-Mar-31 03:26N 01°16' E 104°01'1010.3
2015-Mar-31 02:31N 01°17' E 104°11'  
2015-Mar-28 09:27S 04°33' E 113°28'12810.8
2015-Mar-27 21:33S 04°14' E 115°35'1410.6
2015-Mar-27 20:16S 04°00' E 115°38'3 0.1
2015-Mar-26 01:07S 03°59' E 115°36'0 0.0
2015-Mar-25 07:04S 03°59' E 115°36'0 0.2
2015-Mar-25 06:10S 03°59' E 115°36'0 0.0
2015-Mar-24 08:22S 03°59' E 115°36'3 0.1
2015-Mar-22 17:18S 04°01' E 115°38'  

Dump ship's entire track history